sensor_id;sensor_type;location;lat;lon;timestamp;P1;durP1;ratioP1;P2;durP2;ratioP2
75356;SDS011;63946;51.986;5.930;2023-11-18T08:38:51;15.75;;;9.60;;
75356;SDS011;63946;51.986;5.930;2023-11-18T08:41:22;18.75;;;11.38;;
75356;SDS011;63946;51.986;5.930;2023-11-18T08:43:50;14.82;;;9.60;;
75356;SDS011;63946;51.986;5.930;2023-11-18T08:46:19;16.95;;;10.18;;
75356;SDS011;63946;51.986;5.930;2023-11-18T08:48:48;22.80;;;10.90;;
75356;SDS011;63946;51.986;5.930;2023-11-18T08:51:17;17.23;;;10.07;;
75356;SDS011;63946;51.986;5.930;2023-11-18T08:53:46;19.70;;;10.32;;
75356;SDS011;63946;51.986;5.930;2023-11-18T08:56:16;20.45;;;11.00;;
75356;SDS011;63946;51.986;5.930;2023-11-18T08:58:45;21.25;;;11.45;;
75356;SDS011;63946;51.986;5.930;2023-11-18T09:01:15;18.58;;;11.15;;
75356;SDS011;63946;51.986;5.930;2023-11-18T09:03:45;18.85;;;11.13;;
75356;SDS011;63946;51.986;5.930;2023-11-18T09:06:17;18.75;;;11.45;;
75356;SDS011;63946;51.986;5.930;2023-11-18T09:08:51;18.67;;;9.63;;
75356;SDS011;63946;51.986;5.930;2023-11-18T09:11:23;22.52;;;10.27;;
75356;SDS011;63946;51.986;5.930;2023-11-18T09:13:58;18.80;;;10.20;;
75356;SDS011;63946;51.986;5.930;2023-11-18T09:16:29;18.45;;;9.85;;
75356;SDS011;63946;51.986;5.930;2023-11-18T09:19:04;18.52;;;9.80;;
75356;SDS011;63946;51.986;5.930;2023-11-18T09:21:32;21.02;;;9.38;;
75356;SDS011;63946;51.986;5.930;2023-11-18T09:24:02;17.48;;;10.07;;
75356;SDS011;63946;51.986;5.930;2023-11-18T09:29:02;18.63;;;9.05;;
75356;SDS011;63946;51.986;5.930;2023-11-18T09:31:34;16.63;;;9.88;;
75356;SDS011;63946;51.986;5.930;2023-11-18T09:34:04;20.63;;;11.50;;
75356;SDS011;63946;51.986;5.930;2023-11-18T09:36:41;20.48;;;10.95;;
75356;SDS011;63946;51.986;5.930;2023-11-18T09:39:14;16.58;;;9.52;;
75356;SDS011;63946;51.986;5.930;2023-11-18T09:41:55;17.77;;;9.18;;
75356;SDS011;63946;51.986;5.930;2023-11-18T09:44:28;17.50;;;9.52;;
75356;SDS011;63946;51.986;5.930;2023-11-18T09:46:58;17.77;;;9.10;;
75356;SDS011;63946;51.986;5.930;2023-11-18T09:49:32;16.23;;;8.65;;
75356;SDS011;63946;51.986;5.930;2023-11-18T09:52:06;21.38;;;9.88;;
75356;SDS011;63946;51.986;5.930;2023-11-18T09:54:39;15.15;;;8.88;;
75356;SDS011;63946;51.986;5.930;2023-11-18T09:57:19;16.73;;;8.80;;
75356;SDS011;63946;51.986;5.930;2023-11-18T10:00:00;13.23;;;9.07;;
75356;SDS011;63946;51.986;5.930;2023-11-18T10:02:45;17.13;;;9.65;;
75356;SDS011;63946;51.986;5.930;2023-11-18T10:05:16;18.50;;;9.07;;
75356;SDS011;63946;51.986;5.930;2023-11-18T10:07:47;15.48;;;7.90;;
75356;SDS011;63946;51.986;5.930;2023-11-18T10:10:15;14.57;;;9.07;;
75356;SDS011;63946;51.986;5.930;2023-11-18T10:12:46;13.65;;;7.75;;
75356;SDS011;63946;51.986;5.930;2023-11-18T10:15:18;14.60;;;9.57;;
75356;SDS011;63946;51.986;5.930;2023-11-18T10:17:49;17.13;;;9.93;;
75356;SDS011;63946;51.986;5.930;2023-11-18T10:20:59;14.82;;;8.32;;
75356;SDS011;63946;51.986;5.930;2023-11-18T10:23:21;13.85;;;7.88;;
75356;SDS011;63946;51.986;5.930;2023-11-18T10:25:54;13.15;;;6.97;;
75356;SDS011;63946;51.986;5.930;2023-11-18T10:28:26;12.60;;;6.40;;
75356;SDS011;63946;51.986;5.930;2023-11-18T10:31:04;12.75;;;8.18;;
75356;SDS011;63946;51.986;5.930;2023-11-18T10:33:40;15.15;;;7.50;;
75356;SDS011;63946;51.986;5.930;2023-11-18T10:36:19;11.73;;;6.80;;
75356;SDS011;63946;51.986;5.930;2023-11-18T10:38:52;15.32;;;8.00;;
75356;SDS011;63946;51.986;5.930;2023-11-18T10:41:22;16.83;;;8.50;;
75356;SDS011;63946;51.986;5.930;2023-11-18T10:44:06;14.07;;;7.25;;
75356;SDS011;63946;51.986;5.930;2023-11-18T10:46:40;14.00;;;7.13;;
75356;SDS011;63946;51.986;5.930;2023-11-18T10:49:21;13.95;;;7.47;;
75356;SDS011;63946;51.986;5.930;2023-11-18T10:51:51;16.20;;;7.88;;
75356;SDS011;63946;51.986;5.930;2023-11-18T10:54:20;16.23;;;8.02;;
75356;SDS011;63946;51.986;5.930;2023-11-18T10:56:52;15.40;;;7.95;;
75356;SDS011;63946;51.986;5.930;2023-11-18T10:59:22;13.13;;;7.50;;
75356;SDS011;63946;51.986;5.930;2023-11-18T11:01:52;14.18;;;7.40;;
75356;SDS011;63946;51.986;5.930;2023-11-18T11:04:23;12.07;;;7.40;;
75356;SDS011;63946;51.986;5.930;2023-11-18T11:06:58;13.27;;;6.70;;
75356;SDS011;63946;51.986;5.930;2023-11-18T11:09:30;11.88;;;6.28;;
75356;SDS011;63946;51.986;5.930;2023-11-18T11:12:04;10.75;;;7.03;;
75356;SDS011;63946;51.986;5.930;2023-11-18T11:14:42;13.38;;;6.38;;
75356;SDS011;63946;51.986;5.930;2023-11-18T11:17:19;12.18;;;7.05;;
75356;SDS011;63946;51.986;5.930;2023-11-18T11:19:58;14.48;;;8.27;;
75356;SDS011;63946;51.986;5.930;2023-11-18T11:22:56;11.18;;;6.00;;
75356;SDS011;63946;51.986;5.930;2023-11-18T11:25:48;13.25;;;7.00;;
75356;SDS011;63946;51.986;5.930;2023-11-18T11:28:34;13.23;;;7.20;;
75356;SDS011;63946;51.986;5.930;2023-11-18T11:31:13;12.52;;;7.55;;
75356;SDS011;63946;51.986;5.930;2023-11-18T11:36:44;12.95;;;6.57;;
75356;SDS011;63946;51.986;5.930;2023-11-18T11:39:16;13.50;;;6.90;;
75356;SDS011;63946;51.986;5.930;2023-11-18T11:41:51;13.45;;;6.60;;
75356;SDS011;63946;51.986;5.930;2023-11-18T11:44:28;13.43;;;7.75;;
75356;SDS011;63946;51.986;5.930;2023-11-18T11:47:05;10.68;;;6.38;;
75356;SDS011;63946;51.986;5.930;2023-11-18T11:49:36;14.20;;;6.82;;
75356;SDS011;63946;51.986;5.930;2023-11-18T11:52:28;12.73;;;7.05;;
75356;SDS011;63946;51.986;5.930;2023-11-18T11:55:09;9.70;;;5.20;;
75356;SDS011;63946;51.986;5.930;2023-11-18T11:57:58;10.82;;;6.85;;
75356;SDS011;63946;51.986;5.930;2023-11-18T12:00:27;11.85;;;7.10;;
75356;SDS011;63946;51.986;5.930;2023-11-18T12:03:00;14.85;;;7.25;;
75356;SDS011;63946;51.986;5.930;2023-11-18T12:05:30;11.43;;;6.97;;
75356;SDS011;63946;51.986;5.930;2023-11-18T12:07:59;12.18;;;6.07;;
75356;SDS011;63946;51.986;5.930;2023-11-18T12:10:31;13.65;;;6.10;;
75356;SDS011;63946;51.986;5.930;2023-11-18T12:13:08;11.30;;;6.13;;
75356;SDS011;63946;51.986;5.930;2023-11-18T12:15:51;9.27;;;5.72;;
75356;SDS011;63946;51.986;5.930;2023-11-18T12:18:29;10.95;;;5.97;;
75356;SDS011;63946;51.986;5.930;2023-11-18T12:20:59;14.35;;;6.70;;
75356;SDS011;63946;51.986;5.930;2023-11-18T12:23:29;8.73;;;5.03;;
75356;SDS011;63946;51.986;5.930;2023-11-18T12:25:59;12.95;;;6.88;;
75356;SDS011;63946;51.986;5.930;2023-11-18T12:28:30;9.20;;;5.43;;
75356;SDS011;63946;51.986;5.930;2023-11-18T12:31:01;12.15;;;5.68;;
75356;SDS011;63946;51.986;5.930;2023-11-18T12:33:52;11.57;;;6.25;;
75356;SDS011;63946;51.986;5.930;2023-11-18T12:42:08;12.02;;;6.95;;
75356;SDS011;63946;51.986;5.930;2023-11-18T12:44:53;14.43;;;6.32;;
75356;SDS011;63946;51.986;5.930;2023-11-18T12:47:28;15.02;;;6.28;;
75356;SDS011;63946;51.986;5.930;2023-11-18T12:50:00;12.43;;;6.20;;
75356;SDS011;63946;51.986;5.930;2023-11-18T12:52:43;10.38;;;5.50;;
75356;SDS011;63946;51.986;5.930;2023-11-18T12:55:14;10.68;;;5.75;;
75356;SDS011;63946;51.986;5.930;2023-11-18T12:57:46;12.45;;;6.03;;
75356;SDS011;63946;51.986;5.930;2023-11-18T13:00:19;10.30;;;6.03;;
75356;SDS011;63946;51.986;5.930;2023-11-18T13:02:55;10.43;;;5.60;;
75356;SDS011;63946;51.986;5.930;2023-11-18T13:05:24;14.32;;;5.20;;
75356;SDS011;63946;51.986;5.930;2023-11-18T13:07:56;8.95;;;5.38;;
75356;SDS011;63946;51.986;5.930;2023-11-18T13:10:27;10.30;;;5.60;;
75356;SDS011;63946;51.986;5.930;2023-11-18T13:12:56;9.27;;;5.32;;
75356;SDS011;63946;51.986;5.930;2023-11-18T13:15:27;10.50;;;6.15;;
75356;SDS011;63946;51.986;5.930;2023-11-18T13:17:56;9.63;;;5.47;;
75356;SDS011;63946;51.986;5.930;2023-11-18T13:20:32;9.25;;;4.85;;
75356;SDS011;63946;51.986;5.930;2023-11-18T13:23:02;9.75;;;4.93;;
75356;SDS011;63946;51.986;5.930;2023-11-18T13:25:37;7.45;;;4.50;;
75356;SDS011;63946;51.986;5.930;2023-11-18T13:28:10;9.90;;;5.10;;
75356;SDS011;63946;51.986;5.930;2023-11-18T13:30:40;7.00;;;4.55;;
75356;SDS011;63946;51.986;5.930;2023-11-18T13:33:11;9.23;;;5.22;;
75356;SDS011;63946;51.986;5.930;2023-11-18T13:35:39;10.55;;;6.35;;
75356;SDS011;63946;51.986;5.930;2023-11-18T13:38:09;10.52;;;5.60;;
75356;SDS011;63946;51.986;5.930;2023-11-18T13:40:42;9.48;;;5.35;;
75356;SDS011;63946;51.986;5.930;2023-11-18T13:43:12;7.30;;;5.63;;
75356;SDS011;63946;51.986;5.930;2023-11-18T13:45:42;9.57;;;5.15;;
75356;SDS011;63946;51.986;5.930;2023-11-18T13:48:11;7.40;;;4.68;;
75356;SDS011;63946;51.986;5.930;2023-11-18T13:50:40;6.07;;;3.55;;
75356;SDS011;63946;51.986;5.930;2023-11-18T13:53:10;9.38;;;4.78;;
75356;SDS011;63946;51.986;5.930;2023-11-18T13:55:39;7.70;;;3.70;;
75356;SDS011;63946;51.986;5.930;2023-11-18T13:58:09;6.35;;;3.90;;
75356;SDS011;63946;51.986;5.930;2023-11-18T14:00:38;7.80;;;4.25;;
75356;SDS011;63946;51.986;5.930;2023-11-18T14:03:08;8.48;;;4.30;;
75356;SDS011;63946;51.986;5.930;2023-11-18T14:05:37;7.07;;;3.17;;
75356;SDS011;63946;51.986;5.930;2023-11-18T14:08:08;7.38;;;3.70;;
75356;SDS011;63946;51.986;5.930;2023-11-18T14:10:38;6.68;;;3.67;;
75356;SDS011;63946;51.986;5.930;2023-11-18T14:13:07;6.68;;;3.72;;
75356;SDS011;63946;51.986;5.930;2023-11-18T14:18:09;4.32;;;2.67;;
75356;SDS011;63946;51.986;5.930;2023-11-18T14:20:39;6.30;;;3.10;;
75356;SDS011;63946;51.986;5.930;2023-11-18T14:23:09;6.13;;;3.50;;
75356;SDS011;63946;51.986;5.930;2023-11-18T14:25:37;4.15;;;2.40;;
75356;SDS011;63946;51.986;5.930;2023-11-18T14:28:06;5.22;;;2.67;;
75356;SDS011;63946;51.986;5.930;2023-11-18T14:30:35;4.93;;;3.13;;
75356;SDS011;63946;51.986;5.930;2023-11-18T14:33:04;3.45;;;2.95;;
75356;SDS011;63946;51.986;5.930;2023-11-18T14:35:33;4.35;;;2.85;;
75356;SDS011;63946;51.986;5.930;2023-11-18T14:38:02;3.28;;;2.58;;
75356;SDS011;63946;51.986;5.930;2023-11-18T14:40:31;4.65;;;3.13;;
75356;SDS011;63946;51.986;5.930;2023-11-18T14:43:00;4.00;;;2.30;;
75356;SDS011;63946;51.986;5.930;2023-11-18T14:45:30;3.97;;;2.78;;
75356;SDS011;63946;51.986;5.930;2023-11-18T14:48:00;5.13;;;2.72;;
75356;SDS011;63946;51.986;5.930;2023-11-18T14:50:29;4.90;;;2.75;;
75356;SDS011;63946;51.986;5.930;2023-11-18T14:52:57;3.20;;;2.28;;
75356;SDS011;63946;51.986;5.930;2023-11-18T14:55:29;5.88;;;2.22;;
75356;SDS011;63946;51.986;5.930;2023-11-18T14:57:58;3.00;;;2.10;;
75356;SDS011;63946;51.986;5.930;2023-11-18T15:00:29;3.78;;;2.28;;
75356;SDS011;63946;51.986;5.930;2023-11-18T15:02:58;2.72;;;2.10;;
75356;SDS011;63946;51.986;5.930;2023-11-18T15:05:27;2.85;;;2.30;;
75356;SDS011;63946;51.986;5.930;2023-11-18T15:07:57;3.22;;;2.55;;
75356;SDS011;63946;51.986;5.930;2023-11-18T15:10:26;2.75;;;2.00;;
75356;SDS011;63946;51.986;5.930;2023-11-18T15:12:57;3.97;;;2.47;;
75356;SDS011;63946;51.986;5.930;2023-11-18T15:15:30;4.40;;;2.35;;
75356;SDS011;63946;51.986;5.930;2023-11-18T15:18:01;3.42;;;2.10;;
75356;SDS011;63946;51.986;5.930;2023-11-18T15:20:35;3.72;;;2.17;;
75356;SDS011;63946;51.986;5.930;2023-11-18T15:23:11;2.85;;;2.20;;
75356;SDS011;63946;51.986;5.930;2023-11-18T15:25:41;3.60;;;2.20;;
75356;SDS011;63946;51.986;5.930;2023-11-18T15:28:10;4.10;;;2.75;;
75356;SDS011;63946;51.986;5.930;2023-11-18T15:30:39;3.03;;;1.80;;
75356;SDS011;63946;51.986;5.930;2023-11-18T15:33:09;3.13;;;2.20;;
75356;SDS011;63946;51.986;5.930;2023-11-18T15:35:40;3.33;;;2.10;;
75356;SDS011;63946;51.986;5.930;2023-11-18T15:38:09;2.13;;;1.45;;
75356;SDS011;63946;51.986;5.930;2023-11-18T15:40:42;3.70;;;2.60;;
75356;SDS011;63946;51.986;5.930;2023-11-18T15:43:11;2.72;;;1.77;;
75356;SDS011;63946;51.986;5.930;2023-11-18T15:45:40;3.38;;;2.03;;
75356;SDS011;63946;51.986;5.930;2023-11-18T15:48:10;2.88;;;2.55;;
75356;SDS011;63946;51.986;5.930;2023-11-18T15:50:39;2.67;;;2.33;;
75356;SDS011;63946;51.986;5.930;2023-11-18T15:53:08;3.75;;;1.80;;
75356;SDS011;63946;51.986;5.930;2023-11-18T15:55:39;2.38;;;1.80;;
75356;SDS011;63946;51.986;5.930;2023-11-18T15:58:09;2.17;;;1.95;;
75356;SDS011;63946;51.986;5.930;2023-11-18T16:00:38;2.40;;;1.88;;
75356;SDS011;63946;51.986;5.930;2023-11-18T16:03:08;3.28;;;2.38;;
75356;SDS011;63946;51.986;5.930;2023-11-18T16:05:39;2.33;;;1.98;;
75356;SDS011;63946;51.986;5.930;2023-11-18T16:08:07;2.42;;;1.60;;
75356;SDS011;63946;51.986;5.930;2023-11-18T16:10:36;1.98;;;1.80;;
75356;SDS011;63946;51.986;5.930;2023-11-18T16:13:06;2.10;;;1.90;;
75356;SDS011;63946;51.986;5.930;2023-11-18T16:15:34;2.30;;;1.90;;
75356;SDS011;63946;51.986;5.930;2023-11-18T16:18:03;3.05;;;1.92;;
75356;SDS011;63946;51.986;5.930;2023-11-18T16:20:32;3.00;;;2.80;;
75356;SDS011;63946;51.986;5.930;2023-11-18T16:23:02;2.20;;;2.00;;
75356;SDS011;63946;51.986;5.930;2023-11-18T16:25:31;2.38;;;1.90;;
75356;SDS011;63946;51.986;5.930;2023-11-18T16:28:00;3.55;;;1.60;;
75356;SDS011;63946;51.986;5.930;2023-11-18T16:30:30;2.17;;;1.98;;
75356;SDS011;63946;51.986;5.930;2023-11-18T16:32:59;2.78;;;2.42;;
75356;SDS011;63946;51.986;5.930;2023-11-18T16:35:28;2.97;;;1.92;;
75356;SDS011;63946;51.986;5.930;2023-11-18T16:37:57;1.67;;;1.58;;
75356;SDS011;63946;51.986;5.930;2023-11-18T16:40:29;2.67;;;1.92;;
75356;SDS011;63946;51.986;5.930;2023-11-18T16:42:58;1.90;;;1.75;;
75356;SDS011;63946;51.986;5.930;2023-11-18T16:45:27;2.03;;;1.83;;
75356;SDS011;63946;51.986;5.930;2023-11-18T16:47:56;1.77;;;1.48;;
75356;SDS011;63946;51.986;5.930;2023-11-18T16:50:25;2.72;;;2.53;;
75356;SDS011;63946;51.986;5.930;2023-11-18T16:52:55;2.30;;;1.92;;
75356;SDS011;63946;51.986;5.930;2023-11-18T16:55:25;2.17;;;1.60;;
75356;SDS011;63946;51.986;5.930;2023-11-18T16:57:54;2.50;;;1.90;;
75356;SDS011;63946;51.986;5.930;2023-11-18T17:00:23;2.05;;;1.83;;
75356;SDS011;63946;51.986;5.930;2023-11-18T17:02:53;1.80;;;1.70;;
75356;SDS011;63946;51.986;5.930;2023-11-18T17:05:23;2.30;;;1.77;;
75356;SDS011;63946;51.986;5.930;2023-11-18T17:07:53;1.88;;;1.77;;
75356;SDS011;63946;51.986;5.930;2023-11-18T17:10:22;1.90;;;1.70;;
75356;SDS011;63946;51.986;5.930;2023-11-18T17:12:51;2.05;;;1.75;;
75356;SDS011;63946;51.986;5.930;2023-11-18T17:15:20;1.42;;;1.00;;
75356;SDS011;63946;51.986;5.930;2023-11-18T17:17:49;1.63;;;1.25;;
75356;SDS011;63946;51.986;5.930;2023-11-18T17:20:23;1.48;;;1.38;;
75356;SDS011;63946;51.986;5.930;2023-11-18T17:22:51;1.88;;;1.65;;
75356;SDS011;63946;51.986;5.930;2023-11-18T17:27:51;1.50;;;1.40;;
75356;SDS011;63946;51.986;5.930;2023-11-18T17:30:21;1.58;;;1.45;;
75356;SDS011;63946;51.986;5.930;2023-11-18T17:32:47;1.65;;;1.55;;
75356;SDS011;63946;51.986;5.930;2023-11-18T17:35:17;2.25;;;1.95;;
75356;SDS011;63946;51.986;5.930;2023-11-18T17:37:46;2.78;;;1.85;;
75356;SDS011;63946;51.986;5.930;2023-11-18T17:40:15;1.77;;;1.52;;
75356;SDS011;63946;51.986;5.930;2023-11-18T17:42:47;1.65;;;1.48;;
75356;SDS011;63946;51.986;5.930;2023-11-18T17:45:16;1.50;;;1.40;;
75356;SDS011;63946;51.986;5.930;2023-11-18T17:47:45;2.08;;;1.80;;
75356;SDS011;63946;51.986;5.930;2023-11-18T17:50:13;2.63;;;1.98;;
75356;SDS011;63946;51.986;5.930;2023-11-18T17:52:43;1.65;;;1.33;;
75356;SDS011;63946;51.986;5.930;2023-11-18T17:55:13;2.05;;;1.85;;
75356;SDS011;63946;51.986;5.930;2023-11-18T17:57:42;2.10;;;1.90;;
75356;SDS011;63946;51.986;5.930;2023-11-18T18:00:12;2.40;;;2.20;;
75356;SDS011;63946;51.986;5.930;2023-11-18T18:02:46;2.15;;;1.95;;
75356;SDS011;63946;51.986;5.930;2023-11-18T18:05:15;1.95;;;1.73;;
75356;SDS011;63946;51.986;5.930;2023-11-18T18:07:44;1.98;;;1.70;;
75356;SDS011;63946;51.986;5.930;2023-11-18T18:10:13;2.63;;;2.42;;
75356;SDS011;63946;51.986;5.930;2023-11-18T18:12:41;2.30;;;2.10;;
75356;SDS011;63946;51.986;5.930;2023-11-18T18:15:12;2.47;;;2.25;;
75356;SDS011;63946;51.986;5.930;2023-11-18T18:17:54;2.65;;;2.35;;
75356;SDS011;63946;51.986;5.930;2023-11-18T18:20:23;2.47;;;2.05;;
75356;SDS011;63946;51.986;5.930;2023-11-18T18:22:52;2.80;;;2.60;;
75356;SDS011;63946;51.986;5.930;2023-11-18T18:25:21;2.33;;;2.13;;
75356;SDS011;63946;51.986;5.930;2023-11-18T18:27:50;2.33;;;2.10;;
75356;SDS011;63946;51.986;5.930;2023-11-18T18:30:19;2.60;;;2.30;;
75356;SDS011;63946;51.986;5.930;2023-11-18T18:32:47;4.85;;;2.80;;
75356;SDS011;63946;51.986;5.930;2023-11-18T18:35:16;2.38;;;2.22;;
75356;SDS011;63946;51.986;5.930;2023-11-18T18:37:45;2.85;;;2.47;;
75356;SDS011;63946;51.986;5.930;2023-11-18T18:40:14;3.13;;;2.65;;
75356;SDS011;63946;51.986;5.930;2023-11-18T18:42:44;3.45;;;3.05;;
75356;SDS011;63946;51.986;5.930;2023-11-18T18:45:12;2.97;;;2.65;;
75356;SDS011;63946;51.986;5.930;2023-11-18T18:47:41;3.72;;;3.17;;
75356;SDS011;63946;51.986;5.930;2023-11-18T18:50:11;4.32;;;3.92;;
75356;SDS011;63946;51.986;5.930;2023-11-18T18:52:40;5.45;;;4.85;;
75356;SDS011;63946;51.986;5.930;2023-11-18T18:55:08;3.10;;;2.80;;
75356;SDS011;63946;51.986;5.930;2023-11-18T18:57:37;3.83;;;3.33;;
75356;SDS011;63946;51.986;5.930;2023-11-18T19:00:06;3.40;;;3.10;;
75356;SDS011;63946;51.986;5.930;2023-11-18T19:02:40;3.70;;;3.40;;
75356;SDS011;63946;51.986;5.930;2023-11-18T19:05:09;3.08;;;2.78;;
75356;SDS011;63946;51.986;5.930;2023-11-18T19:07:40;5.13;;;3.90;;
75356;SDS011;63946;51.986;5.930;2023-11-18T19:10:10;5.40;;;4.30;;
75356;SDS011;63946;51.986;5.930;2023-11-18T19:12:39;4.57;;;4.18;;
75356;SDS011;63946;51.986;5.930;2023-11-18T19:15:08;3.40;;;3.05;;
75356;SDS011;63946;51.986;5.930;2023-11-18T19:17:42;5.18;;;3.70;;
75356;SDS011;63946;51.986;5.930;2023-11-18T19:20:12;5.25;;;4.10;;
75356;SDS011;63946;51.986;5.930;2023-11-18T19:22:42;5.55;;;4.50;;
75356;SDS011;63946;51.986;5.930;2023-11-18T19:25:11;5.30;;;4.80;;
75356;SDS011;63946;51.986;5.930;2023-11-18T19:27:43;5.32;;;3.88;;
75356;SDS011;63946;51.986;5.930;2023-11-18T19:30:12;9.48;;;6.57;;
75356;SDS011;63946;51.986;5.930;2023-11-18T19:32:41;5.55;;;3.95;;
75356;SDS011;63946;51.986;5.930;2023-11-18T19:35:11;5.72;;;4.72;;
75356;SDS011;63946;51.986;5.930;2023-11-18T19:37:40;4.05;;;3.63;;
75356;SDS011;63946;51.986;5.930;2023-11-18T19:40:09;4.03;;;3.60;;
75356;SDS011;63946;51.986;5.930;2023-11-18T19:42:39;4.72;;;3.88;;
75356;SDS011;63946;51.986;5.930;2023-11-18T19:45:09;4.13;;;3.63;;
75356;SDS011;63946;51.986;5.930;2023-11-18T19:47:38;3.83;;;3.33;;
75356;SDS011;63946;51.986;5.930;2023-11-18T19:50:07;4.05;;;3.25;;
75356;SDS011;63946;51.986;5.930;2023-11-18T19:52:37;4.45;;;3.97;;
75356;SDS011;63946;51.986;5.930;2023-11-18T19:55:06;3.50;;;3.20;;
75356;SDS011;63946;51.986;5.930;2023-11-18T19:57:35;4.30;;;3.90;;
75356;SDS011;63946;51.986;5.930;2023-11-18T20:00:04;4.03;;;3.72;;
75356;SDS011;63946;51.986;5.930;2023-11-18T20:02:38;4.65;;;4.25;;
75356;SDS011;63946;51.986;5.930;2023-11-18T20:05:07;5.05;;;4.55;;
75356;SDS011;63946;51.986;5.930;2023-11-18T20:07:36;3.70;;;3.40;;
75356;SDS011;63946;51.986;5.930;2023-11-18T20:10:08;4.03;;;3.67;;
75356;SDS011;63946;51.986;5.930;2023-11-18T20:12:39;4.38;;;3.40;;
75356;SDS011;63946;51.986;5.930;2023-11-18T20:15:09;3.97;;;3.67;;
75356;SDS011;63946;51.986;5.930;2023-11-18T20:17:39;4.30;;;3.88;;
75356;SDS011;63946;51.986;5.930;2023-11-18T20:20:10;3.97;;;3.63;;
75356;SDS011;63946;51.986;5.930;2023-11-18T20:22:40;4.22;;;3.65;;
75356;SDS011;63946;51.986;5.930;2023-11-18T20:25:08;5.25;;;3.25;;
75356;SDS011;63946;51.986;5.930;2023-11-18T20:27:40;3.50;;;3.20;;
75356;SDS011;63946;51.986;5.930;2023-11-18T20:30:08;4.30;;;3.90;;
75356;SDS011;63946;51.986;5.930;2023-11-18T20:32:38;3.70;;;3.40;;
75356;SDS011;63946;51.986;5.930;2023-11-18T20:35:09;3.95;;;3.55;;
75356;SDS011;63946;51.986;5.930;2023-11-18T20:37:38;5.10;;;4.60;;
75356;SDS011;63946;51.986;5.930;2023-11-18T20:40:11;4.60;;;4.20;;
75356;SDS011;63946;51.986;5.930;2023-11-18T20:42:49;4.40;;;4.00;;
75356;SDS011;63946;51.986;5.930;2023-11-18T20:45:18;5.13;;;4.63;;
75356;SDS011;63946;51.986;5.930;2023-11-18T20:47:47;5.10;;;4.63;;
75356;SDS011;63946;51.986;5.930;2023-11-18T20:50:16;4.25;;;3.85;;
75356;SDS011;63946;51.986;5.930;2023-11-18T20:52:45;3.67;;;3.17;;
75356;SDS011;63946;51.986;5.930;2023-11-18T20:55:14;4.72;;;4.32;;
75356;SDS011;63946;51.986;5.930;2023-11-18T20:57:43;3.95;;;3.55;;
75356;SDS011;63946;51.986;5.930;2023-11-18T21:00:12;4.00;;;3.63;;
75356;SDS011;63946;51.986;5.930;2023-11-18T21:02:42;4.45;;;4.05;;
75356;SDS011;63946;51.986;5.930;2023-11-18T21:05:11;3.92;;;3.63;;
75356;SDS011;63946;51.986;5.930;2023-11-18T21:07:40;4.30;;;3.90;;
75356;SDS011;63946;51.986;5.930;2023-11-18T21:10:09;3.90;;;3.60;;
75356;SDS011;63946;51.986;5.930;2023-11-18T21:12:41;4.00;;;3.60;;
75356;SDS011;63946;51.986;5.930;2023-11-18T21:15:10;5.28;;;4.78;;
75356;SDS011;63946;51.986;5.930;2023-11-18T21:17:39;4.75;;;4.35;;
75356;SDS011;63946;51.986;5.930;2023-11-18T21:20:08;4.82;;;4.43;;
75356;SDS011;63946;51.986;5.930;2023-11-18T21:22:40;5.07;;;4.00;;
75356;SDS011;63946;51.986;5.930;2023-11-18T21:25:10;5.15;;;4.65;;
75356;SDS011;63946;51.986;5.930;2023-11-18T21:30:09;4.55;;;4.15;;
75356;SDS011;63946;51.986;5.930;2023-11-18T21:32:41;5.07;;;4.40;;
75356;SDS011;63946;51.986;5.930;2023-11-18T21:35:11;6.10;;;5.43;;
75356;SDS011;63946;51.986;5.930;2023-11-18T21:37:43;5.43;;;4.80;;
75356;SDS011;63946;51.986;5.930;2023-11-18T21:40:12;4.47;;;4.07;;
75356;SDS011;63946;51.986;5.930;2023-11-18T21:42:42;6.05;;;5.30;;
75356;SDS011;63946;51.986;5.930;2023-11-18T21:45:12;6.78;;;4.47;;
75356;SDS011;63946;51.986;5.930;2023-11-18T21:47:41;4.88;;;4.40;;
75356;SDS011;63946;51.986;5.930;2023-11-18T21:50:10;4.22;;;3.85;;
75356;SDS011;63946;51.986;5.930;2023-11-18T21:52:39;4.30;;;3.90;;
75356;SDS011;63946;51.986;5.930;2023-11-18T21:55:09;5.25;;;4.75;;
75356;SDS011;63946;51.986;5.930;2023-11-18T21:57:38;5.55;;;5.03;;
75356;SDS011;63946;51.986;5.930;2023-11-18T22:00:08;7.35;;;6.45;;
75356;SDS011;63946;51.986;5.930;2023-11-18T22:02:43;6.85;;;5.72;;
75356;SDS011;63946;51.986;5.930;2023-11-18T22:05:13;7.30;;;6.00;;
75356;SDS011;63946;51.986;5.930;2023-11-18T22:07:43;6.40;;;5.47;;
75356;SDS011;63946;51.986;5.930;2023-11-18T22:10:12;6.47;;;5.90;;
75356;SDS011;63946;51.986;5.930;2023-11-18T22:12:42;6.40;;;5.80;;
75356;SDS011;63946;51.986;5.930;2023-11-18T22:15:11;8.73;;;7.82;;
75356;SDS011;63946;51.986;5.930;2023-11-18T22:17:42;6.30;;;5.63;;
75356;SDS011;63946;51.986;5.930;2023-11-18T22:20:12;9.88;;;7.70;;
75356;SDS011;63946;51.986;5.930;2023-11-18T22:22:42;7.80;;;6.55;;
75356;SDS011;63946;51.986;5.930;2023-11-18T22:25:15;7.05;;;6.35;;
75356;SDS011;63946;51.986;5.930;2023-11-18T22:27:44;7.68;;;6.97;;
75356;SDS011;63946;51.986;5.930;2023-11-18T22:30:14;9.38;;;7.25;;
75356;SDS011;63946;51.986;5.930;2023-11-18T22:32:45;8.80;;;7.40;;
75356;SDS011;63946;51.986;5.930;2023-11-18T22:35:17;9.55;;;8.32;;
75356;SDS011;63946;51.986;5.930;2023-11-18T22:37:49;8.93;;;8.02;;
